Prairie Du Chien, Wisconsin
Current Conditions -  °F | °C
As of 5:55 PM on Saturday 25 Oct 2014 (Local Time) from KPDC Reporting Station
Clear Clear  
Wind Chill: 62°   Ceiling: Unl
Heat Index: 62°   Visibility: 10mi
Dew Point: 27°   Wind: 7mph
Humidity: 26%   Direction: 280°W
Pressure: 30"   Gusts: NA
Location:  43.05°N, 91.14°W
Report Text: KPDC 252255Z AUTO 28006KT 10SM CLR 17/M03 A3000 RMK AO2 T01661029
Loading
Personal Weather Stations






























Interactive Weather Map
Tropical Storm Tracking
New forecast layout! Learn more

10-Day Weather Forecast

Advertisements
Track Severe Weather on mobile